sensor_id;sensor_type;location;lat;lon;timestamp;pressure;altitude;pressure_sealevel;temperature;humidity
71917;BME280;59793;46.506;6.674;2023-08-06T00:00:19;96820.88;;;18.96;55.69
71917;BME280;59793;46.506;6.674;2023-08-06T00:02:45;96834.88;;;19.04;55.58
71917;BME280;59793;46.506;6.674;2023-08-06T00:05:10;96802.81;;;18.77;55.31
71917;BME280;59793;46.506;6.674;2023-08-06T00:07:35;96792.22;;;18.70;55.79
71917;BME280;59793;46.506;6.674;2023-08-06T00:10:01;96814.22;;;18.81;55.06
71917;BME280;59793;46.506;6.674;2023-08-06T00:12:26;96780.88;;;18.58;56.80
71917;BME280;59793;46.506;6.674;2023-08-06T00:14:52;96756.63;;;18.49;55.50
71917;BME280;59793;46.506;6.674;2023-08-06T00:17:17;96810.38;;;18.82;56.07
71917;BME280;59793;46.506;6.674;2023-08-06T00:19:43;96807.72;;;18.82;55.61
71917;BME280;59793;46.506;6.674;2023-08-06T00:22:08;96796.75;;;18.73;54.64
71917;BME280;59793;46.506;6.674;2023-08-06T00:24:34;96826.31;;;18.89;55.53
71917;BME280;59793;46.506;6.674;2023-08-06T00:26:59;96780.00;;;18.69;56.75
71917;BME280;59793;46.506;6.674;2023-08-06T00:29:25;96767.88;;;18.64;56.56
71917;BME280;59793;46.506;6.674;2023-08-06T00:31:50;96773.91;;;18.72;56.50
71917;BME280;59793;46.506;6.674;2023-08-06T00:34:15;96803.16;;;18.79;54.19
71917;BME280;59793;46.506;6.674;2023-08-06T00:36:41;96807.84;;;18.71;55.60
71917;BME280;59793;46.506;6.674;2023-08-06T00:39:06;96741.63;;;18.28;55.88
71917;BME280;59793;46.506;6.674;2023-08-06T00:41:32;96835.66;;;18.74;54.94
71917;BME280;59793;46.506;6.674;2023-08-06T00:43:57;96797.47;;;18.43;55.89
71917;BME280;59793;46.506;6.674;2023-08-06T00:46:23;96795.31;;;18.64;56.67
71917;BME280;59793;46.506;6.674;2023-08-06T00:48:49;96773.66;;;18.59;58.53
71917;BME280;59793;46.506;6.674;2023-08-06T00:51:16;96816.59;;;18.72;58.24
71917;BME280;59793;46.506;6.674;2023-08-06T00:53:42;96797.03;;;18.48;57.35
71917;BME280;59793;46.506;6.674;2023-08-06T00:56:08;96775.72;;;18.44;58.92
71917;BME280;59793;46.506;6.674;2023-08-06T00:58:34;96804.38;;;18.71;57.22
71917;BME280;59793;46.506;6.674;2023-08-06T01:01:00;96768.78;;;18.50;57.20
71917;BME280;59793;46.506;6.674;2023-08-06T01:03:26;96796.16;;;18.58;57.51
71917;BME280;59793;46.506;6.674;2023-08-06T01:05:51;96809.19;;;18.52;56.31
71917;BME280;59793;46.506;6.674;2023-08-06T01:08:46;96815.41;;;18.76;58.43
71917;BME280;59793;46.506;6.674;2023-08-06T01:13:58;96803.69;;;18.67;57.10
71917;BME280;59793;46.506;6.674;2023-08-06T01:16:24;96760.22;;;18.35;57.47
71917;BME280;59793;46.506;6.674;2023-08-06T01:18:50;96766.66;;;18.38;58.70
71917;BME280;59793;46.506;6.674;2023-08-06T01:21:17;96781.44;;;18.46;57.22
71917;BME280;59793;46.506;6.674;2023-08-06T01:23:42;96779.22;;;18.41;57.68
71917;BME280;59793;46.506;6.674;2023-08-06T01:26:28;96795.72;;;18.63;57.08
71917;BME280;59793;46.506;6.674;2023-08-06T01:31:31;96772.00;;;18.38;57.09
71917;BME280;59793;46.506;6.674;2023-08-06T01:34:01;96804.91;;;18.58;56.14
71917;BME280;59793;46.506;6.674;2023-08-06T01:36:28;96808.31;;;18.62;55.92
71917;BME280;59793;46.506;6.674;2023-08-06T01:38:53;96803.75;;;18.59;56.86
71917;BME280;59793;46.506;6.674;2023-08-06T01:41:19;96774.88;;;18.51;58.09
71917;BME280;59793;46.506;6.674;2023-08-06T01:43:44;96754.84;;;18.39;56.96
71917;BME280;59793;46.506;6.674;2023-08-06T01:46:10;96758.38;;;18.29;56.26
71917;BME280;59793;46.506;6.674;2023-08-06T01:48:35;96792.00;;;18.53;56.23
71917;BME280;59793;46.506;6.674;2023-08-06T01:51:01;96762.47;;;18.37;55.61
71917;BME280;59793;46.506;6.674;2023-08-06T01:53:28;96769.72;;;18.36;57.57
71917;BME280;59793;46.506;6.674;2023-08-06T01:55:54;96749.22;;;18.30;58.09
71917;BME280;59793;46.506;6.674;2023-08-06T01:58:19;96762.53;;;18.30;56.75
71917;BME280;59793;46.506;6.674;2023-08-06T02:00:44;96813.72;;;18.55;57.00
71917;BME280;59793;46.506;6.674;2023-08-06T02:03:09;96791.72;;;18.44;58.30
71917;BME280;59793;46.506;6.674;2023-08-06T02:05:35;96789.97;;;18.34;59.68
71917;BME280;59793;46.506;6.674;2023-08-06T02:08:00;96772.69;;;18.08;59.08
71917;BME280;59793;46.506;6.674;2023-08-06T02:10:25;96797.00;;;18.13;60.40
71917;BME280;59793;46.506;6.674;2023-08-06T02:12:51;96778.66;;;17.81;62.66
71917;BME280;59793;46.506;6.674;2023-08-06T02:15:16;96794.25;;;17.83;63.51
71917;BME280;59793;46.506;6.674;2023-08-06T02:17:41;96778.53;;;17.47;63.65
71917;BME280;59793;46.506;6.674;2023-08-06T02:20:07;96797.13;;;17.51;65.56
71917;BME280;59793;46.506;6.674;2023-08-06T02:22:32;96780.69;;;17.07;68.28
71917;BME280;59793;46.506;6.674;2023-08-06T02:24:58;96784.28;;;16.76;68.32
71917;BME280;59793;46.506;6.674;2023-08-06T02:27:23;96749.81;;;16.47;69.19
71917;BME280;59793;46.506;6.674;2023-08-06T02:29:49;96733.50;;;16.31;70.17
71917;BME280;59793;46.506;6.674;2023-08-06T02:32:14;96744.13;;;16.34;70.22
71917;BME280;59793;46.506;6.674;2023-08-06T02:34:39;96772.16;;;16.57;69.99
71917;BME280;59793;46.506;6.674;2023-08-06T02:37:05;96761.16;;;16.51;70.46
71917;BME280;59793;46.506;6.674;2023-08-06T02:39:30;96796.41;;;16.80;71.23
71917;BME280;59793;46.506;6.674;2023-08-06T02:41:55;96768.72;;;16.63;70.33
71917;BME280;59793;46.506;6.674;2023-08-06T02:44:21;96747.09;;;16.54;70.88
71917;BME280;59793;46.506;6.674;2023-08-06T02:46:46;96739.47;;;16.56;69.29
71917;BME280;59793;46.506;6.674;2023-08-06T02:49:12;96704.25;;;16.38;68.34
71917;BME280;59793;46.506;6.674;2023-08-06T02:51:37;96734.91;;;16.60;68.39
71917;BME280;59793;46.506;6.674;2023-08-06T02:54:02;96799.00;;;16.98;66.41
71917;BME280;59793;46.506;6.674;2023-08-06T02:56:27;96761.81;;;16.80;68.21
71917;BME280;59793;46.506;6.674;2023-08-06T02:58:53;96785.31;;;17.00;67.63
71917;BME280;59793;46.506;6.674;2023-08-06T03:01:18;96750.44;;;16.72;66.99
71917;BME280;59793;46.506;6.674;2023-08-06T03:03:43;96759.53;;;16.82;67.86
71917;BME280;59793;46.506;6.674;2023-08-06T03:06:09;96755.38;;;16.74;66.30
71917;BME280;59793;46.506;6.674;2023-08-06T03:08:34;96814.13;;;17.12;67.55
71917;BME280;59793;46.506;6.674;2023-08-06T03:10:59;96797.03;;;17.09;67.96
71917;BME280;59793;46.506;6.674;2023-08-06T03:13:25;96787.94;;;17.03;67.43
71917;BME280;59793;46.506;6.674;2023-08-06T03:15:58;96779.97;;;17.03;66.42
71917;BME280;59793;46.506;6.674;2023-08-06T03:18:24;96778.81;;;17.04;67.26
71917;BME280;59793;46.506;6.674;2023-08-06T03:20:51;96802.63;;;17.26;68.40
71917;BME280;59793;46.506;6.674;2023-08-06T03:23:17;96767.03;;;16.98;67.79
71917;BME280;59793;46.506;6.674;2023-08-06T03:25:42;96790.53;;;17.17;67.85
71917;BME280;59793;46.506;6.674;2023-08-06T03:28:07;96797.41;;;17.08;68.99
71917;BME280;59793;46.506;6.674;2023-08-06T03:30:33;96810.31;;;17.09;68.73
71917;BME280;59793;46.506;6.674;2023-08-06T03:32:58;96833.88;;;17.14;68.35
71917;BME280;59793;46.506;6.674;2023-08-06T03:35:23;96799.78;;;16.91;69.47
71917;BME280;59793;46.506;6.674;2023-08-06T03:37:49;96761.91;;;16.55;71.00
71917;BME280;59793;46.506;6.674;2023-08-06T03:40:15;96780.16;;;16.53;70.51
71917;BME280;59793;46.506;6.674;2023-08-06T03:42:40;96793.06;;;16.58;71.10
71917;BME280;59793;46.506;6.674;2023-08-06T03:45:06;96835.25;;;16.49;71.98
71917;BME280;59793;46.506;6.674;2023-08-06T03:47:32;96817.50;;;16.07;73.95
71917;BME280;59793;46.506;6.674;2023-08-06T03:49:57;96828.88;;;15.96;72.16
71917;BME280;59793;46.506;6.674;2023-08-06T03:52:23;96798.16;;;15.77;72.57
71917;BME280;59793;46.506;6.674;2023-08-06T03:54:48;96808.38;;;15.90;72.59
71917;BME280;59793;46.506;6.674;2023-08-06T03:57:13;96813.69;;;15.97;72.04
71917;BME280;59793;46.506;6.674;2023-08-06T03:59:39;96784.47;;;15.86;71.08
71917;BME280;59793;46.506;6.674;2023-08-06T04:02:04;96837.97;;;16.20;71.74
71917;BME280;59793;46.506;6.674;2023-08-06T04:04:29;96807.59;;;16.07;71.36
71917;BME280;59793;46.506;6.674;2023-08-06T04:06:55;96790.94;;;15.96;70.90
71917;BME280;59793;46.506;6.674;2023-08-06T04:09:20;96814.78;;;16.32;70.00
71917;BME280;59793;46.506;6.674;2023-08-06T04:11:45;96795.41;;;16.31;70.47
71917;BME280;59793;46.506;6.674;2023-08-06T04:14:11;96820.41;;;16.55;69.17
71917;BME280;59793;46.506;6.674;2023-08-06T04:16:36;96802.97;;;16.47;70.00
71917;BME280;59793;46.506;6.674;2023-08-06T04:19:01;96767.34;;;16.27;69.08
71917;BME280;59793;46.506;6.674;2023-08-06T04:21:27;96798.00;;;16.56;69.59
71917;BME280;59793;46.506;6.674;2023-08-06T04:23:52;96786.22;;;16.61;67.74
71917;BME280;59793;46.506;6.674;2023-08-06T04:26:17;96792.31;;;16.58;62.94
71917;BME280;59793;46.506;6.674;2023-08-06T04:28:43;96808.97;;;16.76;65.76
71917;BME280;59793;46.506;6.674;2023-08-06T04:31:08;96806.69;;;16.71;63.77
71917;BME280;59793;46.506;6.674;2023-08-06T04:33:33;96808.97;;;16.69;66.46
71917;BME280;59793;46.506;6.674;2023-08-06T04:35:59;96844.69;;;16.82;67.77
71917;BME280;59793;46.506;6.674;2023-08-06T04:38:25;96813.97;;;16.49;70.88
71917;BME280;59793;46.506;6.674;2023-08-06T04:40:50;96791.25;;;16.30;71.67
71917;BME280;59793;46.506;6.674;2023-08-06T04:43:16;96823.91;;;16.34;71.80
71917;BME280;59793;46.506;6.674;2023-08-06T04:45:53;96807.97;;;16.23;73.23
71917;BME280;59793;46.506;6.674;2023-08-06T04:48:19;96836.44;;;16.37;71.82
71917;BME280;59793;46.506;6.674;2023-08-06T04:50:45;96827.34;;;16.20;71.26
71917;BME280;59793;46.506;6.674;2023-08-06T04:53:11;96832.28;;;16.33;71.64
71917;BME280;59793;46.506;6.674;2023-08-06T04:55:36;96846.66;;;16.39;71.52
71917;BME280;59793;46.506;6.674;2023-08-06T04:58:01;96853.13;;;16.45;71.43
71917;BME280;59793;46.506;6.674;2023-08-06T05:00:27;96801.53;;;16.17;68.63
71917;BME280;59793;46.506;6.674;2023-08-06T05:02:52;96859.19;;;16.49;66.61
71917;BME280;59793;46.506;6.674;2023-08-06T05:05:17;96813.31;;;16.09;67.03
71917;BME280;59793;46.506;6.674;2023-08-06T05:07:45;96854.66;;;16.24;68.50
71917;BME280;59793;46.506;6.674;2023-08-06T05:10:10;96852.03;;;16.21;67.95
71917;BME280;59793;46.506;6.674;2023-08-06T05:12:35;96849.38;;;15.89;59.75
71917;BME280;59793;46.506;6.674;2023-08-06T05:15:01;96836.09;;;15.89;59.54
71917;BME280;59793;46.506;6.674;2023-08-06T05:17:26;96858.50;;;16.02;59.35
71917;BME280;59793;46.506;6.674;2023-08-06T05:19:52;96872.94;;;16.05;59.44
71917;BME280;59793;46.506;6.674;2023-08-06T05:22:17;96885.81;;;16.17;58.79
71917;BME280;59793;46.506;6.674;2023-08-06T05:24:42;96843.31;;;15.85;58.88
71917;BME280;59793;46.506;6.674;2023-08-06T05:27:08;96898.75;;;16.29;58.47
71917;BME280;59793;46.506;6.674;2023-08-06T05:29:33;96875.94;;;16.03;60.02
71917;BME280;59793;46.506;6.674;2023-08-06T05:31:58;96880.13;;;16.11;59.83
71917;BME280;59793;46.506;6.674;2023-08-06T05:34:23;96923.03;;;16.35;61.66
71917;BME280;59793;46.506;6.674;2023-08-06T05:36:50;96924.53;;;16.25;61.61
71917;BME280;59793;46.506;6.674;2023-08-06T05:39:15;96891.91;;;15.92;67.64
71917;BME280;59793;46.506;6.674;2023-08-06T05:41:40;96899.09;;;15.70;65.03
71917;BME280;59793;46.506;6.674;2023-08-06T05:44:06;96914.59;;;15.58;66.71
71917;BME280;59793;46.506;6.674;2023-08-06T05:46:31;96914.13;;;15.23;68.00
71917;BME280;59793;46.506;6.674;2023-08-06T05:48:56;96933.03;;;15.11;69.69
71917;BME280;59793;46.506;6.674;2023-08-06T05:51:22;96947.44;;;15.10;71.34
71917;BME280;59793;46.506;6.674;2023-08-06T05:53:48;96950.34;;;14.91;69.53
71917;BME280;59793;46.506;6.674;2023-08-06T05:56:14;96955.28;;;14.89;72.73
71917;BME280;59793;46.506;6.674;2023-08-06T05:58:40;96959.84;;;14.92;71.43
71917;BME280;59793;46.506;6.674;2023-08-06T06:01:06;96923.44;;;14.85;72.60
71917;BME280;59793;46.506;6.674;2023-08-06T06:03:31;96957.31;;;15.13;71.31
71917;BME280;59793;46.506;6.674;2023-08-06T06:05:56;96990.81;;;15.46;71.71
71917;BME280;59793;46.506;6.674;2023-08-06T06:08:22;96932.25;;;15.07;71.76
71917;BME280;59793;46.506;6.674;2023-08-06T06:10:47;96980.16;;;15.39;73.83
71917;BME280;59793;46.506;6.674;2023-08-06T06:13:12;96969.91;;;15.38;73.60
71917;BME280;59793;46.506;6.674;2023-08-06T06:15:38;96938.00;;;15.23;71.85
71917;BME280;59793;46.506;6.674;2023-08-06T06:18:03;96998.03;;;15.57;72.09
71917;BME280;59793;46.506;6.674;2023-08-06T06:20:28;97005.53;;;15.37;71.30
71917;BME280;59793;46.506;6.674;2023-08-06T06:22:54;97004.06;;;15.46;72.37
71917;BME280;59793;46.506;6.674;2023-08-06T06:25:19;97007.88;;;15.45;73.90
71917;BME280;59793;46.506;6.674;2023-08-06T06:27:44;97015.47;;;15.50;72.82
71917;BME280;59793;46.506;6.674;2023-08-06T06:30:10;96987.69;;;15.26;69.27
71917;BME280;59793;46.506;6.674;2023-08-06T06:32:37;96997.56;;;15.37;69.62
71917;BME280;59793;46.506;6.674;2023-08-06T06:35:02;97005.97;;;15.42;69.21
71917;BME280;59793;46.506;6.674;2023-08-06T06:37:28;97031.03;;;15.52;69.80
71917;BME280;59793;46.506;6.674;2023-08-06T06:39:53;97029.19;;;15.63;68.93
71917;BME280;59793;46.506;6.674;2023-08-06T06:42:18;96989.66;;;15.51;69.49
71917;BME280;59793;46.506;6.674;2023-08-06T06:44:44;97007.22;;;15.66;69.41
71917;BME280;59793;46.506;6.674;2023-08-06T06:47:09;97019.78;;;15.80;68.72
71917;BME280;59793;46.506;6.674;2023-08-06T06:49:34;97001.97;;;15.84;68.29
71917;BME280;59793;46.506;6.674;2023-08-06T06:51:59;96991.69;;;15.83;65.53
71917;BME280;59793;46.506;6.674;2023-08-06T06:54:25;97051.38;;;16.17;65.82
71917;BME280;59793;46.506;6.674;2023-08-06T06:56:50;97005.41;;;15.95;68.24
71917;BME280;59793;46.506;6.674;2023-08-06T06:59:15;96986.34;;;15.68;67.59
71917;BME280;59793;46.506;6.674;2023-08-06T07:01:41;96970.00;;;15.63;69.63
71917;BME280;59793;46.506;6.674;2023-08-06T07:04:06;97023.97;;;15.88;69.04
71917;BME280;59793;46.506;6.674;2023-08-06T07:06:32;96979.94;;;15.73;69.55
71917;BME280;59793;46.506;6.674;2023-08-06T07:08:57;96969.97;;;15.52;67.46
71917;BME280;59793;46.506;6.674;2023-08-06T07:11:22;96966.81;;;15.21;68.13
71917;BME280;59793;46.506;6.674;2023-08-06T07:13:49;97008.13;;;15.19;69.36
71917;BME280;59793;46.506;6.674;2023-08-06T07:16:15;97037.72;;;15.24;71.12
71917;BME280;59793;46.506;6.674;2023-08-06T07:18:40;97052.16;;;15.27;71.23
71917;BME280;59793;46.506;6.674;2023-08-06T07:21:05;97082.00;;;15.10;72.96
71917;BME280;59793;46.506;6.674;2023-08-06T07:23:31;97036.28;;;14.75;72.09
71917;BME280;59793;46.506;6.674;2023-08-06T07:25:56;97066.34;;;14.94;74.56
71917;BME280;59793;46.506;6.674;2023-08-06T07:28:21;97088.38;;;15.01;74.56
71917;BME280;59793;46.506;6.674;2023-08-06T07:30:47;97077.81;;;15.09;73.59
71917;BME280;59793;46.506;6.674;2023-08-06T07:33:13;97051.59;;;15.00;74.75
71917;BME280;59793;46.506;6.674;2023-08-06T07:35:38;97059.56;;;15.00;73.11
71917;BME280;59793;46.506;6.674;2023-08-06T07:38:04;97055.47;;;15.13;73.97
71917;BME280;59793;46.506;6.674;2023-08-06T07:40:29;97037.31;;;15.19;71.71
71917;BME280;59793;46.506;6.674;2023-08-06T07:42:55;97094.88;;;15.70;71.63
71917;BME280;59793;46.506;6.674;2023-08-06T07:45:20;97075.19;;;15.82;69.35
71917;BME280;59793;46.506;6.674;2023-08-06T07:47:45;97079.44;;;16.08;69.09
71917;BME280;59793;46.506;6.674;2023-08-06T07:50:11;97055.88;;;15.99;67.92
71917;BME280;59793;46.506;6.674;2023-08-06T07:52:37;97043.34;;;15.89;68.04
71917;BME280;59793;46.506;6.674;2023-08-06T07:55:02;97090.13;;;16.22;64.61
71917;BME280;59793;46.506;6.674;2023-08-06T07:57:30;97089.34;;;16.21;65.46
71917;BME280;59793;46.506;6.674;2023-08-06T07:59:56;97097.72;;;16.20;66.16
71917;BME280;59793;46.506;6.674;2023-08-06T08:02:21;97066.44;;;15.77;63.70
71917;BME280;59793;46.506;6.674;2023-08-06T08:04:46;97100.31;;;15.95;65.22
71917;BME280;59793;46.506;6.674;2023-08-06T08:07:13;97125.72;;;15.96;65.61
71917;BME280;59793;46.506;6.674;2023-08-06T08:09:38;97069.47;;;15.69;65.60
71917;BME280;59793;46.506;6.674;2023-08-06T08:12:04;97126.13;;;16.01;65.76
71917;BME280;59793;46.506;6.674;2023-08-06T08:14:29;97082.75;;;15.72;66.98
71917;BME280;59793;46.506;6.674;2023-08-06T08:17:03;97099.47;;;15.76;66.94
71917;BME280;59793;46.506;6.674;2023-08-06T08:19:29;97108.84;;;15.63;68.71
71917;BME280;59793;46.506;6.674;2023-08-06T08:21:55;97137.44;;;15.84;70.59
71917;BME280;59793;46.506;6.674;2023-08-06T08:24:20;97097.91;;;15.68;69.15
71917;BME280;59793;46.506;6.674;2023-08-06T08:26:49;97105.94;;;15.83;68.36
71917;BME280;59793;46.506;6.674;2023-08-06T08:29:14;97120.78;;;15.87;66.58
71917;BME280;59793;46.506;6.674;2023-08-06T08:31:40;97096.88;;;15.94;65.62
71917;BME280;59793;46.506;6.674;2023-08-06T08:34:05;97096.88;;;15.91;64.17
71917;BME280;59793;46.506;6.674;2023-08-06T08:36:31;97128.06;;;16.12;65.81
71917;BME280;59793;46.506;6.674;2023-08-06T08:38:56;97102.84;;;15.66;65.28
71917;BME280;59793;46.506;6.674;2023-08-06T08:41:22;97102.34;;;15.50;67.32
71917;BME280;59793;46.506;6.674;2023-08-06T08:43:50;97093.66;;;15.60;68.26
71917;BME280;59793;46.506;6.674;2023-08-06T08:46:18;97148.16;;;16.06;66.18
71917;BME280;59793;46.506;6.674;2023-08-06T08:48:44;97159.53;;;16.02;66.16
71917;BME280;59793;46.506;6.674;2023-08-06T08:51:10;97097.44;;;15.56;65.71
71917;BME280;59793;46.506;6.674;2023-08-06T08:53:37;97135.88;;;15.69;65.29
71917;BME280;59793;46.506;6.674;2023-08-06T08:56:05;97092.91;;;15.60;65.25
71917;BME280;59793;46.506;6.674;2023-08-06T08:58:30;97150.06;;;16.05;66.85
71917;BME280;59793;46.506;6.674;2023-08-06T09:00:55;97099.53;;;15.91;66.82
71917;BME280;59793;46.506;6.674;2023-08-06T09:03:21;97095.72;;;15.88;64.77
71917;BME280;59793;46.506;6.674;2023-08-06T09:05:49;97131.53;;;16.27;64.48
71917;BME280;59793;46.506;6.674;2023-08-06T09:08:17;97157.81;;;16.53;64.32
71917;BME280;59793;46.506;6.674;2023-08-06T09:10:44;97153.56;;;16.23;63.54
71917;BME280;59793;46.506;6.674;2023-08-06T09:13:13;97102.09;;;15.73;64.17
71917;BME280;59793;46.506;6.674;2023-08-06T09:15:39;97108.41;;;15.54;64.40
71917;BME280;59793;46.506;6.674;2023-08-06T09:18:11;97180.34;;;15.90;68.14
71917;BME280;59793;46.506;6.674;2023-08-06T09:20:39;97067.56;;;15.07;67.09
71917;BME280;59793;46.506;6.674;2023-08-06T09:23:10;97165.88;;;15.76;67.01
71917;BME280;59793;46.506;6.674;2023-08-06T09:25:38;97121.72;;;15.61;64.89
71917;BME280;59793;46.506;6.674;2023-08-06T09:28:06;97167.47;;;15.92;65.58
71917;BME280;59793;46.506;6.674;2023-08-06T09:30:34;97194.63;;;16.37;66.00
71917;BME280;59793;46.506;6.674;2023-08-06T09:33:00;97159.19;;;16.11;65.13
71917;BME280;59793;46.506;6.674;2023-08-06T09:35:28;97163.81;;;16.29;63.92
71917;BME280;59793;46.506;6.674;2023-08-06T09:37:54;97174.78;;;16.13;63.92
71917;BME280;59793;46.506;6.674;2023-08-06T09:40:27;97209.63;;;15.97;67.92
71917;BME280;59793;46.506;6.674;2023-08-06T09:42:53;97202.41;;;15.90;68.39
71917;BME280;59793;46.506;6.674;2023-08-06T09:45:19;97181.88;;;15.87;67.71
71917;BME280;59793;46.506;6.674;2023-08-06T09:47:44;97185.38;;;16.02;66.10
71917;BME280;59793;46.506;6.674;2023-08-06T09:50:19;97178.53;;;16.01;64.54
71917;BME280;59793;46.506;6.674;2023-08-06T09:52:46;97141.63;;;15.89;63.68
71917;BME280;59793;46.506;6.674;2023-08-06T09:55:12;97172.59;;;16.40;62.28
71917;BME280;59793;46.506;6.674;2023-08-06T09:57:40;97154.00;;;16.40;62.38
71917;BME280;59793;46.506;6.674;2023-08-06T10:00:06;97172.28;;;16.73;60.10
71917;BME280;59793;46.506;6.674;2023-08-06T10:02:34;97136.56;;;16.71;59.68
71917;BME280;59793;46.506;6.674;2023-08-06T10:05:01;97163.59;;;16.87;59.13
71917;BME280;59793;46.506;6.674;2023-08-06T10:07:27;97159.78;;;16.85;59.98
71917;BME280;59793;46.506;6.674;2023-08-06T10:09:54;97153.28;;;16.61;59.35
71917;BME280;59793;46.506;6.674;2023-08-06T10:12:21;97179.16;;;16.75;59.73
71917;BME280;59793;46.506;6.674;2023-08-06T10:14:47;97170.81;;;16.87;57.90
71917;BME280;59793;46.506;6.674;2023-08-06T10:17:14;97134.66;;;16.57;57.40
71917;BME280;59793;46.506;6.674;2023-08-06T10:19:40;97166.94;;;16.52;58.48
71917;BME280;59793;46.506;6.674;2023-08-06T10:22:10;97206.94;;;16.91;58.73
71917;BME280;59793;46.506;6.674;2023-08-06T10:24:57;97198.63;;;17.14;60.58
71917;BME280;59793;46.506;6.674;2023-08-06T10:27:40;97216.09;;;17.01;61.48
71917;BME280;59793;46.506;6.674;2023-08-06T10:30:21;97217.97;;;16.83;59.12
71917;BME280;59793;46.506;6.674;2023-08-06T10:32:49;97210.34;;;16.81;60.69
71917;BME280;59793;46.506;6.674;2023-08-06T10:37:53;97195.53;;;16.77;59.59
71917;BME280;59793;46.506;6.674;2023-08-06T10:40:22;97202.00;;;16.86;61.76
71917;BME280;59793;46.506;6.674;2023-08-06T10:42:48;97203.50;;;16.84;60.31
71917;BME280;59793;46.506;6.674;2023-08-06T10:45:14;97224.84;;;17.05;59.29
71917;BME280;59793;46.506;6.674;2023-08-06T10:47:41;97186.03;;;16.76;59.83
71917;BME280;59793;46.506;6.674;2023-08-06T10:50:13;97226.00;;;17.18;59.75
71917;BME280;59793;46.506;6.674;2023-08-06T10:52:41;97208.09;;;16.94;59.31
71917;BME280;59793;46.506;6.674;2023-08-06T10:55:07;97217.25;;;17.18;60.33
71917;BME280;59793;46.506;6.674;2023-08-06T10:57:34;97221.81;;;17.25;59.54
71917;BME280;59793;46.506;6.674;2023-08-06T10:59:59;97157.94;;;17.07;57.19
71917;BME280;59793;46.506;6.674;2023-08-06T11:02:25;97195.94;;;17.39;57.19
71917;BME280;59793;46.506;6.674;2023-08-06T11:04:50;97233.22;;;17.57;58.81
71917;BME280;59793;46.506;6.674;2023-08-06T11:07:16;97178.44;;;16.95;58.01
71917;BME280;59793;46.506;6.674;2023-08-06T11:09:42;97168.16;;;16.87;59.39
71917;BME280;59793;46.506;6.674;2023-08-06T11:12:10;97210.00;;;17.04;58.08
71917;BME280;59793;46.506;6.674;2023-08-06T11:14:36;97219.53;;;17.27;57.79
71917;BME280;59793;46.506;6.674;2023-08-06T11:17:01;97234.00;;;17.26;56.79
71917;BME280;59793;46.506;6.674;2023-08-06T11:19:27;97198.22;;;17.12;57.99
71917;BME280;59793;46.506;6.674;2023-08-06T11:21:54;97221.03;;;17.17;57.48
71917;BME280;59793;46.506;6.674;2023-08-06T11:24:20;97216.09;;;17.01;56.46
71917;BME280;59793;46.506;6.674;2023-08-06T11:26:45;97229.41;;;17.15;56.96
71917;BME280;59793;46.506;6.674;2023-08-06T11:29:11;97240.81;;;17.19;59.07
71917;BME280;59793;46.506;6.674;2023-08-06T11:31:36;97231.66;;;16.95;60.23
71917;BME280;59793;46.506;6.674;2023-08-06T11:34:02;97249.94;;;16.97;61.33
71917;BME280;59793;46.506;6.674;2023-08-06T11:36:34;97241.47;;;16.70;60.41
71917;BME280;59793;46.506;6.674;2023-08-06T11:39:02;97253.56;;;16.57;62.71
71917;BME280;59793;46.506;6.674;2023-08-06T11:41:28;97209.00;;;16.29;60.81
71917;BME280;59793;46.506;6.674;2023-08-06T11:43:54;97239.41;;;16.28;60.92
71917;BME280;59793;46.506;6.674;2023-08-06T11:46:19;97231.81;;;16.30;62.20
71917;BME280;59793;46.506;6.674;2023-08-06T11:48:55;97252.38;;;16.40;62.93
71917;BME280;59793;46.506;6.674;2023-08-06T11:51:27;97195.69;;;16.21;63.03
71917;BME280;59793;46.506;6.674;2023-08-06T11:53:56;97222.47;;;16.71;62.64
71917;BME280;59793;46.506;6.674;2023-08-06T11:56:21;97194.81;;;17.19;60.41
71917;BME280;59793;46.506;6.674;2023-08-06T11:58:47;97215.72;;;17.56;60.65
71917;BME280;59793;46.506;6.674;2023-08-06T12:01:13;97210.03;;;17.47;59.31
71917;BME280;59793;46.506;6.674;2023-08-06T12:03:41;97199.38;;;17.51;57.54
71917;BME280;59793;46.506;6.674;2023-08-06T12:06:06;97192.88;;;17.80;57.38
71917;BME280;59793;46.506;6.674;2023-08-06T12:08:35;97187.56;;;17.44;56.82
71917;BME280;59793;46.506;6.674;2023-08-06T12:11:00;97219.16;;;17.53;58.07
71917;BME280;59793;46.506;6.674;2023-08-06T12:13:26;97218.75;;;17.51;58.04
71917;BME280;59793;46.506;6.674;2023-08-06T12:15:51;97202.75;;;17.69;57.88
71917;BME280;59793;46.506;6.674;2023-08-06T12:18:19;97253.00;;;18.06;56.19
71917;BME280;59793;46.506;6.674;2023-08-06T12:20:44;97227.13;;;17.75;56.55
71917;BME280;59793;46.506;6.674;2023-08-06T12:23:09;97243.81;;;18.14;56.18
71917;BME280;59793;46.506;6.674;2023-08-06T12:25:35;97147.91;;;17.93;55.69
71917;BME280;59793;46.506;6.674;2023-08-06T12:28:00;97239.91;;;18.44;54.32
71917;BME280;59793;46.506;6.674;2023-08-06T12:30:26;97199.19;;;18.26;54.93
71917;BME280;59793;46.506;6.674;2023-08-06T12:32:51;97211.09;;;18.07;56.29
71917;BME280;59793;46.506;6.674;2023-08-06T12:35:17;97189.78;;;17.96;56.04
71917;BME280;59793;46.506;6.674;2023-08-06T12:37:42;97213.06;;;17.63;54.59
71917;BME280;59793;46.506;6.674;2023-08-06T12:40:09;97253.03;;;17.78;57.78
71917;BME280;59793;46.506;6.674;2023-08-06T12:42:34;97244.25;;;17.59;58.55
71917;BME280;59793;46.506;6.674;2023-08-06T12:44:59;97231.69;;;17.28;58.08
71917;BME280;59793;46.506;6.674;2023-08-06T12:47:25;97230.19;;;17.23;56.71
71917;BME280;59793;46.506;6.674;2023-08-06T12:49:50;97246.16;;;17.41;58.34
71917;BME280;59793;46.506;6.674;2023-08-06T12:52:15;97217.25;;;17.04;59.59
71917;BME280;59793;46.506;6.674;2023-08-06T12:54:41;97240.84;;;17.48;58.00
71917;BME280;59793;46.506;6.674;2023-08-06T12:57:07;97261.03;;;17.67;57.79
71917;BME280;59793;46.506;6.674;2023-08-06T12:59:32;97262.16;;;17.84;57.83
71917;BME280;59793;46.506;6.674;2023-08-06T13:01:58;97232.47;;;17.67;60.17